Time;durP1;ratioP1;P1;durP2;ratioP2;P2;SDS_P1;SDS_P2;PMS_P1;PMS_P2;Temp;Humidity;BMP_temperature;BMP_pressure;BME280_temperature;BME280_humidity;BME280_pressure;Samples;Min_cycle;Max_cycle;Signal;HPM_P1;HPM_P2
2023/12/04 00:01:51;;;;;;;8.38;3.55;;;;;;;;;;6420474;22;20033;-79
2023/12/04 00:04:17;;;;;;;4.72;2.63;;;;;;;;;;6421516;22;20031;-80
2023/12/04 00:06:42;;;;;;;7.45;3.22;;;;;;;;;;6392424;22;20089;-79
2023/12/04 00:09:07;;;;;;;4.47;2.28;;;;;;;;;;6393213;22;20406;-79
2023/12/04 00:11:33;;;;;;;7.55;3.55;;;;;;;;;;6421944;22;20452;-79
2023/12/04 00:13:59;;;;;;;4.43;2.00;;;;;;;;;;6421748;22;20892;-79
2023/12/04 00:16:25;;;;;;;10.05;4.03;;;;;;;;;;6393106;22;20083;-79
2023/12/04 00:18:50;;;;;;;6.93;2.55;;;;;;;;;;6393917;22;20001;-79
2023/12/04 00:21:16;;;;;;;9.50;2.97;;;;;;;;;;6426707;22;20001;-79
2023/12/04 00:23:41;;;;;;;10.85;2.60;;;;;;;;;;6408409;22;20387;-79
2023/12/04 00:26:07;;;;;;;8.02;3.53;;;;;;;;;;6414341;22;20001;-79
2023/12/04 00:28:32;;;;;;;4.85;2.70;;;;;;;;;;6426753;22;20013;-79
2023/12/04 00:30:57;;;;;;;8.98;3.88;;;;;;;;;;6393482;22;20066;-79
2023/12/04 00:33:23;;;;;;;8.25;2.70;;;;;;;;;;6422026;22;19998;-79
2023/12/04 00:35:48;;;;;;;9.75;2.85;;;;;;;;;;6393799;22;20001;-80
2023/12/04 00:38:14;;;;;;;10.02;4.22;;;;;;;;;;6421665;22;20023;-80
2023/12/04 00:40:40;;;;;;;7.25;3.20;;;;;;;;;;6422007;22;20009;-80
2023/12/04 00:43:05;;;;;;;8.30;2.97;;;;;;;;;;6420680;22;20038;-79
2023/12/04 00:45:30;;;;;;;4.90;2.88;;;;;;;;;;6420896;22;20068;-79
2023/12/04 00:47:56;;;;;;;9.23;3.30;;;;;;;;;;6419848;22;20109;-79
2023/12/04 00:50:21;;;;;;;6.28;3.15;;;;;;;;;;6391593;22;20020;-79
2023/12/04 00:52:47;;;;;;;3.90;1.58;;;;;;;;;;6392804;22;20002;-79
2023/12/04 00:55:12;;;;;;;10.77;4.85;;;;;;;;;;6420781;22;20105;-79
2023/12/04 00:57:38;;;;;;;6.93;4.03;;;;;;;;;;6391653;22;20013;-79
2023/12/04 01:00:04;;;;;;;7.75;3.78;;;;;;;;;;6422179;22;20002;-79
2023/12/04 01:02:30;;;;;;;9.02;3.70;;;;;;;;;;6392974;22;20017;-79
2023/12/04 01:04:55;;;;;;;11.95;4.20;;;;;;;;;;6422502;22;20029;-79
2023/12/04 01:07:20;;;;;;;10.70;4.00;;;;;;;;;;6394607;22;20058;-79
2023/12/04 01:09:46;;;;;;;12.45;4.60;;;;;;;;;;6394893;22;20009;-79
2023/12/04 01:12:11;;;;;;;12.95;5.05;;;;;;;;;;6394118;22;20001;-79
2023/12/04 01:14:38;;;;;;;14.82;4.75;;;;;;;;;;6423685;22;20406;-79
2023/12/04 01:17:04;;;;;;;11.18;4.40;;;;;;;;;;6394504;22;20009;-79
2023/12/04 01:19:29;;;;;;;15.60;5.55;;;;;;;;;;6393801;22;20020;-80
2023/12/04 01:21:55;;;;;;;4.97;2.85;;;;;;;;;;6422723;22;20018;-79
2023/12/04 01:24:20;;;;;;;7.45;3.45;;;;;;;;;;6394858;22;20046;-79
2023/12/04 01:26:46;;;;;;;9.50;3.72;;;;;;;;;;6422472;22;20452;-79
2023/12/04 01:29:12;;;;;;;7.07;3.60;;;;;;;;;;6393023;22;20010;-79
2023/12/04 01:31:37;;;;;;;9.77;3.97;;;;;;;;;;6422634;22;20013;-79
2023/12/04 01:34:02;;;;;;;6.45;2.78;;;;;;;;;;6422946;22;20010;-79
2023/12/04 01:36:28;;;;;;;8.63;2.92;;;;;;;;;;6422750;22;20001;-79
2023/12/04 01:38:53;;;;;;;5.60;2.58;;;;;;;;;;6423670;22;20499;-79
2023/12/04 01:41:18;;;;;;;6.43;2.65;;;;;;;;;;6396129;22;20032;-79
2023/12/04 01:43:44;;;;;;;5.78;2.58;;;;;;;;;;6433556;22;20050;-80
2023/12/04 01:46:10;;;;;;;4.25;2.20;;;;;;;;;;6409882;22;20010;-79
2023/12/04 01:48:36;;;;;;;5.82;2.45;;;;;;;;;;6426169;22;20050;-79
2023/12/04 01:51:06;;;;;;;3.53;2.35;;;;;;;;;;6395252;22;20001;-79
2023/12/04 01:53:32;;;;;;;5.63;2.28;;;;;;;;;;6393430;22;20543;-79
2023/12/04 01:55:58;;;;;;;7.13;2.63;;;;;;;;;;6423042;22;20013;-79
2023/12/04 01:58:23;;;;;;;4.47;2.10;;;;;;;;;;6421798;22;20445;-84
2023/12/04 02:00:49;;;;;;;7.47;3.28;;;;;;;;;;6394616;22;20101;-79
2023/12/04 02:03:15;;;;;;;6.53;2.47;;;;;;;;;;6394059;22;20029;-79
2023/12/04 02:05:43;;;;;;;8.00;2.80;;;;;;;;;;6394188;22;20397;-79
2023/12/04 02:08:10;;;;;;;6.40;2.58;;;;;;;;;;6422261;22;20631;-79
2023/12/04 02:10:36;;;;;;;6.07;2.17;;;;;;;;;;6393251;22;20009;-79
2023/12/04 02:13:02;;;;;;;4.75;2.63;;;;;;;;;;6394083;22;20306;-79
2023/12/04 02:15:27;;;;;;;3.17;2.10;;;;;;;;;;6393360;22;20009;-79
2023/12/04 02:17:53;;;;;;;5.28;2.45;;;;;;;;;;6423297;22;20046;-79
2023/12/04 02:20:18;;;;;;;7.13;2.85;;;;;;;;;;6393140;22;20005;-79
2023/12/04 02:22:44;;;;;;;6.57;2.60;;;;;;;;;;6390665;22;20058;-80
2023/12/04 02:25:10;;;;;;;4.97;2.42;;;;;;;;;;6421733;22;20025;-80
2023/12/04 02:27:46;;;;;;;7.00;2.42;;;;;;;;;;6392336;22;20439;-79
2023/12/04 02:30:13;;;;;;;6.75;2.55;;;;;;;;;;6394526;22;20028;-79
2023/12/04 02:32:44;;;;;;;6.70;2.80;;;;;;;;;;6422808;22;20400;-79
2023/12/04 02:35:11;;;;;;;5.47;2.88;;;;;;;;;;6393623;22;20812;-79
2023/12/04 02:37:37;;;;;;;5.40;2.03;;;;;;;;;;6394089;22;20338;-79
2023/12/04 02:40:03;;;;;;;5.75;2.40;;;;;;;;;;6393259;22;20017;-79
2023/12/04 02:42:29;;;;;;;5.38;2.00;;;;;;;;;;6392976;22;20484;-79
2023/12/04 02:44:54;;;;;;;6.32;1.95;;;;;;;;;;6422712;22;20060;-79
2023/12/04 02:47:19;;;;;;;6.72;2.78;;;;;;;;;;6394540;22;20038;-79
2023/12/04 02:49:45;;;;;;;5.93;2.45;;;;;;;;;;6393317;22;20575;-79
2023/12/04 02:52:10;;;;;;;5.68;2.65;;;;;;;;;;6392777;22;20037;-79
2023/12/04 02:54:36;;;;;;;8.02;3.47;;;;;;;;;;6394064;22;20012;-79
2023/12/04 02:57:02;;;;;;;4.03;1.63;;;;;;;;;;6394903;22;20417;-79
2023/12/04 02:59:27;;;;;;;6.68;2.90;;;;;;;;;;6423467;22;20010;-79
2023/12/04 03:01:52;;;;;;;4.07;1.85;;;;;;;;;;6395977;22;20017;-79
2023/12/04 03:04:19;;;;;;;5.85;2.20;;;;;;;;;;6431238;22;20028;-79
2023/12/04 03:06:45;;;;;;;7.82;2.97;;;;;;;;;;6439737;22;20452;-80
2023/12/04 03:09:11;;;;;;;5.03;2.95;;;;;;;;;;6444516;22;20001;-79
2023/12/04 03:11:39;;;;;;;6.50;2.83;;;;;;;;;;6403229;22;20010;-79
2023/12/04 03:14:05;;;;;;;7.72;3.13;;;;;;;;;;6396437;22;20501;-79
2023/12/04 03:16:30;;;;;;;7.55;2.83;;;;;;;;;;6394267;22;20010;-79
2023/12/04 03:18:55;;;;;;;7.50;2.65;;;;;;;;;;6394171;22;20040;-79
2023/12/04 03:21:21;;;;;;;7.70;2.50;;;;;;;;;;6394340;22;20419;-79
2023/12/04 03:23:46;;;;;;;3.95;2.10;;;;;;;;;;6393567;22;20017;-79
2023/12/04 03:26:11;;;;;;;7.35;2.60;;;;;;;;;;6394064;22;20013;-79
2023/12/04 03:28:38;;;;;;;6.07;2.28;;;;;;;;;;6392391;22;20016;-79
2023/12/04 03:31:04;;;;;;;7.90;3.42;;;;;;;;;;6393410;22;20456;-79
2023/12/04 03:33:30;;;;;;;5.30;2.30;;;;;;;;;;6421726;22;20018;-79
2023/12/04 03:35:55;;;;;;;6.45;2.80;;;;;;;;;;6422592;22;19994;-79
2023/12/04 03:38:20;;;;;;;3.72;2.17;;;;;;;;;;6393741;22;20029;-79
2023/12/04 03:40:46;;;;;;;3.75;2.22;;;;;;;;;;6420771;22;20359;-79
2023/12/04 03:43:11;;;;;;;5.90;3.15;;;;;;;;;;6422036;22;20016;-79
2023/12/04 03:45:36;;;;;;;7.25;2.17;;;;;;;;;;6393044;22;20080;-79
2023/12/04 03:48:02;;;;;;;8.95;3.20;;;;;;;;;;6394254;22;20022;-78
2023/12/04 03:50:27;;;;;;;5.63;2.45;;;;;;;;;;6393461;22;20032;-79
2023/12/04 03:52:52;;;;;;;5.10;2.55;;;;;;;;;;6392275;22;20020;-79
2023/12/04 03:55:19;;;;;;;3.28;1.58;;;;;;;;;;6421342;22;20054;-79
2023/12/04 03:57:45;;;;;;;4.13;2.40;;;;;;;;;;6421128;22;20011;-78
2023/12/04 04:00:11;;;;;;;3.00;1.90;;;;;;;;;;6422269;22;20060;-79
2023/12/04 04:02:37;;;;;;;8.25;2.03;;;;;;;;;;6393353;22;20092;-79
2023/12/04 04:05:03;;;;;;;4.22;1.52;;;;;;;;;;6392045;22;20032;-79
2023/12/04 04:07:28;;;;;;;5.85;2.47;;;;;;;;;;6392374;22;20013;-79
2023/12/04 04:09:53;;;;;;;3.47;1.58;;;;;;;;;;6421902;22;20356;-78
2023/12/04 04:12:19;;;;;;;4.43;1.75;;;;;;;;;;6393840;22;20005;-79
2023/12/04 04:14:44;;;;;;;7.10;2.78;;;;;;;;;;6393583;22;20037;-79
2023/12/04 04:17:09;;;;;;;4.05;1.88;;;;;;;;;;6420648;22;20014;-78
2023/12/04 04:19:35;;;;;;;6.22;2.58;;;;;;;;;;6392466;22;20010;-79
2023/12/04 04:22:00;;;;;;;2.08;1.05;;;;;;;;;;6422443;22;20014;-79
2023/12/04 04:24:26;;;;;;;3.72;2.15;;;;;;;;;;6400506;22;20653;-79
2023/12/04 04:26:51;;;;;;;3.38;1.83;;;;;;;;;;6437789;22;20000;-79
2023/12/04 04:29:17;;;;;;;4.40;2.13;;;;;;;;;;6429259;22;20017;-79
2023/12/04 04:31:42;;;;;;;6.90;2.53;;;;;;;;;;6421214;22;20461;-79
2023/12/04 04:34:07;;;;;;;6.40;3.00;;;;;;;;;;6421819;22;20009;-79
2023/12/04 04:36:35;;;;;;;3.10;1.75;;;;;;;;;;6393067;22;20009;-80
2023/12/04 04:39:00;;;;;;;2.85;1.58;;;;;;;;;;6395874;22;20076;-79
2023/12/04 04:41:26;;;;;;;5.05;2.75;;;;;;;;;;6422564;22;20037;-79
2023/12/04 04:43:51;;;;;;;2.38;2.00;;;;;;;;;;6422432;22;20421;-80
2023/12/04 04:46:16;;;;;;;7.43;2.25;;;;;;;;;;6394963;22;20009;-79
2023/12/04 04:48:42;;;;;;;3.03;2.00;;;;;;;;;;6395461;22;20045;-79
2023/12/04 04:51:07;;;;;;;5.28;1.75;;;;;;;;;;6424153;22;19993;-79
2023/12/04 04:53:33;;;;;;;5.60;2.03;;;;;;;;;;6394799;22;20009;-79
2023/12/04 04:55:58;;;;;;;2.80;1.58;;;;;;;;;;6393329;22;20014;-79
2023/12/04 04:58:24;;;;;;;5.10;2.00;;;;;;;;;;6393977;22;20009;-79
2023/12/04 05:00:49;;;;;;;4.18;1.35;;;;;;;;;;6394881;22;20105;-79
2023/12/04 05:03:15;;;;;;;3.20;1.65;;;;;;;;;;6424082;22;20024;-79
2023/12/04 05:05:40;;;;;;;4.93;1.80;;;;;;;;;;6423083;22;20012;-79
2023/12/04 05:08:05;;;;;;;5.80;2.40;;;;;;;;;;6422670;22;20013;-80
2023/12/04 05:10:31;;;;;;;4.20;1.98;;;;;;;;;;6394331;22;20009;-79
2023/12/04 05:12:56;;;;;;;5.70;2.00;;;;;;;;;;6395329;22;20001;-79
2023/12/04 05:15:21;;;;;;;7.55;1.80;;;;;;;;;;6395128;22;20000;-79
2023/12/04 05:17:47;;;;;;;3.92;1.60;;;;;;;;;;6423142;22;20017;-79
2023/12/04 05:20:12;;;;;;;5.05;2.00;;;;;;;;;;6423177;22;20082;-79
2023/12/04 05:22:38;;;;;;;2.78;1.55;;;;;;;;;;6394676;22;20032;-79
2023/12/04 05:25:04;;;;;;;4.60;1.90;;;;;;;;;;6423579;22;20014;-79
2023/12/04 05:27:29;;;;;;;3.55;2.20;;;;;;;;;;6422946;22;20005;-79
2023/12/04 05:29:54;;;;;;;6.13;1.95;;;;;;;;;;6394665;22;20068;-79
2023/12/04 05:32:20;;;;;;;5.50;1.90;;;;;;;;;;6422825;22;20365;-79
2023/12/04 05:34:46;;;;;;;4.35;1.67;;;;;;;;;;6395158;22;20024;-79
2023/12/04 05:37:11;;;;;;;4.75;2.20;;;;;;;;;;6394621;22;20008;-79
2023/12/04 05:39:36;;;;;;;3.80;1.70;;;;;;;;;;6396095;22;19997;-79
2023/12/04 05:42:03;;;;;;;3.05;1.42;;;;;;;;;;6396215;22;20069;-79
2023/12/04 05:44:28;;;;;;;4.45;2.20;;;;;;;;;;6429849;22;20009;-78
2023/12/04 05:46:53;;;;;;;5.57;2.10;;;;;;;;;;6440162;22;20092;-79
2023/12/04 05:49:19;;;;;;;5.82;2.13;;;;;;;;;;6415086;22;20409;-79
2023/12/04 05:51:44;;;;;;;5.15;2.50;;;;;;;;;;6399280;22;20009;-79
2023/12/04 05:54:09;;;;;;;3.17;1.63;;;;;;;;;;6423387;22;20009;-79
2023/12/04 05:56:35;;;;;;;5.57;2.42;;;;;;;;;;6393383;22;20005;-78
2023/12/04 05:59:00;;;;;;;3.80;2.03;;;;;;;;;;6395076;22;20555;-79
2023/12/04 06:01:26;;;;;;;5.30;2.45;;;;;;;;;;6423472;22;20357;-79
2023/12/04 06:03:51;;;;;;;5.18;2.58;;;;;;;;;;6421983;22;20104;-79
2023/12/04 06:06:17;;;;;;;3.75;1.90;;;;;;;;;;6423174;22;19993;-79
2023/12/04 06:08:42;;;;;;;2.20;1.63;;;;;;;;;;6393964;22;20385;-79
2023/12/04 06:11:07;;;;;;;5.03;2.40;;;;;;;;;;6422888;22;20005;-79
2023/12/04 06:13:33;;;;;;;6.03;2.83;;;;;;;;;;6423110;22;20248;-78
2023/12/04 06:15:58;;;;;;;5.05;2.35;;;;;;;;;;6393180;22;20002;-79
2023/12/04 06:18:23;;;;;;;4.40;2.20;;;;;;;;;;6393915;22;20127;-78
2023/12/04 06:20:49;;;;;;;4.70;2.67;;;;;;;;;;6394276;22;20033;-78
2023/12/04 06:23:15;;;;;;;4.72;1.92;;;;;;;;;;6423179;22;20005;-78
2023/12/04 06:25:40;;;;;;;5.07;2.45;;;;;;;;;;6393464;22;20032;-79
2023/12/04 06:28:07;;;;;;;3.45;2.15;;;;;;;;;;6392726;22;20815;-79
2023/12/04 06:30:33;;;;;;;4.28;2.13;;;;;;;;;;6393115;22;20096;-79
2023/12/04 06:32:58;;;;;;;3.97;1.90;;;;;;;;;;6423300;22;20020;-79
2023/12/04 06:35:24;;;;;;;5.57;2.42;;;;;;;;;;6422329;22;20444;-78
2023/12/04 06:37:53;;;;;;;6.07;2.80;;;;;;;;;;6393497;22;20016;-79
2023/12/04 06:40:19;;;;;;;4.57;2.45;;;;;;;;;;6393168;22;20008;-78
2023/12/04 06:42:45;;;;;;;4.78;2.58;;;;;;;;;;6422378;22;20017;-79
2023/12/04 06:45:11;;;;;;;4.65;2.25;;;;;;;;;;6422918;22;20001;-79
2023/12/04 06:47:37;;;;;;;5.35;2.75;;;;;;;;;;6422570;22;20089;-79
2023/12/04 06:50:02;;;;;;;4.40;2.78;;;;;;;;;;6421351;22;20019;-79
2023/12/04 06:52:28;;;;;;;7.95;3.42;;;;;;;;;;6393840;22;20017;-78
2023/12/04 06:54:53;;;;;;;5.28;2.80;;;;;;;;;;6420085;22;20013;-79
2023/12/04 06:57:18;;;;;;;6.15;2.35;;;;;;;;;;6422016;22;20104;-79
2023/12/04 06:59:44;;;;;;;7.75;2.80;;;;;;;;;;6392519;22;20025;-78
2023/12/04 07:02:09;;;;;;;8.38;2.92;;;;;;;;;;6391656;22;20794;-78
2023/12/04 07:04:35;;;;;;;8.52;3.60;;;;;;;;;;6427244;22;20702;-78
2023/12/04 07:07:05;;;;;;;8.70;3.83;;;;;;;;;;6436179;22;20403;-80
2023/12/04 07:09:32;;;;;;;5.07;2.13;;;;;;;;;;6432735;22;20019;-78
2023/12/04 07:11:57;;;;;;;7.53;3.58;;;;;;;;;;6393394;22;20045;-79
2023/12/04 07:14:23;;;;;;;9.52;2.88;;;;;;;;;;6421638;22;20088;-79
2023/12/04 07:16:49;;;;;;;5.93;2.85;;;;;;;;;;6419905;22;20024;-79
2023/12/04 07:19:16;;;;;;;8.00;3.60;;;;;;;;;;6421963;22;20005;-79
2023/12/04 07:21:41;;;;;;;6.40;3.20;;;;;;;;;;6420633;22;20032;-79
2023/12/04 07:24:07;;;;;;;5.78;3.45;;;;;;;;;;6423197;22;20072;-79
2023/12/04 07:26:34;;;;;;;5.20;2.55;;;;;;;;;;6421260;22;20445;-79
2023/12/04 07:29:00;;;;;;;8.30;3.95;;;;;;;;;;6421085;22;20088;-79
2023/12/04 07:31:26;;;;;;;4.45;2.35;;;;;;;;;;6393845;22;20506;-79
2023/12/04 07:33:55;;;;;;;6.90;2.58;;;;;;;;;;6422337;22;20006;-79
2023/12/04 07:36:21;;;;;;;4.60;2.58;;;;;;;;;;6393200;22;20024;-80
2023/12/04 07:38:46;;;;;;;6.90;3.20;;;;;;;;;;6392214;22;20361;-79
2023/12/04 07:41:12;;;;;;;4.03;2.53;;;;;;;;;;6393745;22;20468;-80
2023/12/04 07:43:37;;;;;;;7.72;3.17;;;;;;;;;;6422058;22;20020;-80
2023/12/04 07:46:03;;;;;;;5.63;2.72;;;;;;;;;;6392607;22;20009;-79
2023/12/04 07:48:29;;;;;;;7.75;2.78;;;;;;;;;;6391634;22;20537;-80
2023/12/04 07:50:55;;;;;;;6.32;3.10;;;;;;;;;;6393508;22;19993;-79
2023/12/04 07:53:20;;;;;;;7.03;3.25;;;;;;;;;;6419757;22;20333;-80
2023/12/04 07:55:48;;;;;;;5.93;2.47;;;;;;;;;;6384839;22;20020;-80
2023/12/04 07:58:13;;;;;;;5.50;2.75;;;;;;;;;;6419027;22;20084;-80
2023/12/04 08:00:39;;;;;;;6.43;3.22;;;;;;;;;;6420654;22;20036;-80
2023/12/04 08:03:04;;;;;;;6.72;2.92;;;;;;;;;;6420713;22;20028;-80
2023/12/04 08:05:31;;;;;;;4.55;2.70;;;;;;;;;;6392478;22;20013;-84
2023/12/04 08:07:57;;;;;;;5.45;2.70;;;;;;;;;;6391909;22;20005;-82
2023/12/04 08:10:23;;;;;;;4.63;2.67;;;;;;;;;;6420365;22;20002;-84
2023/12/04 08:12:48;;;;;;;8.18;3.90;;;;;;;;;;6422085;22;20001;-82
2023/12/04 08:15:14;;;;;;;7.43;3.92;;;;;;;;;;6424272;22;20109;-84
2023/12/04 08:17:40;;;;;;;5.63;2.75;;;;;;;;;;6396205;22;20014;-85
2023/12/04 08:20:06;;;;;;;7.57;3.83;;;;;;;;;;6395469;22;20009;-79
2023/12/04 08:22:31;;;;;;;8.27;3.53;;;;;;;;;;6395964;22;20039;-80
2023/12/04 08:24:58;;;;;;;9.30;3.67;;;;;;;;;;6400735;22;20092;-78
2023/12/04 08:27:24;;;;;;;7.22;3.70;;;;;;;;;;6440100;22;20017;-85
2023/12/04 08:29:49;;;;;;;7.70;3.80;;;;;;;;;;6401265;22;20004;-85
2023/12/04 08:32:15;;;;;;;6.80;3.28;;;;;;;;;;6423786;22;20349;-84
2023/12/04 08:34:40;;;;;;;8.07;4.30;;;;;;;;;;6414250;22;20340;-84
2023/12/04 08:37:06;;;;;;;5.90;2.95;;;;;;;;;;6388286;22;20009;-84
2023/12/04 08:39:31;;;;;;;4.30;2.42;;;;;;;;;;6388321;22;20001;-84
2023/12/04 08:41:59;;;;;;;5.57;2.63;;;;;;;;;;6384345;22;20036;-84
2023/12/04 08:44:25;;;;;;;8.20;3.30;;;;;;;;;;6415148;22;20044;-84
2023/12/04 08:46:50;;;;;;;7.68;3.15;;;;;;;;;;6390336;22;20013;-84
2023/12/04 08:49:16;;;;;;;5.57;2.88;;;;;;;;;;6383398;22;20033;-85
2023/12/04 08:51:41;;;;;;;6.63;2.85;;;;;;;;;;6422062;22;20014;-84
2023/12/04 08:54:07;;;;;;;4.28;2.72;;;;;;;;;;6422227;22;19997;-84
2023/12/04 08:56:32;;;;;;;9.63;3.65;;;;;;;;;;6393681;22;20009;-84
2023/12/04 08:58:58;;;;;;;7.47;3.20;;;;;;;;;;6396482;22;20037;-84
2023/12/04 09:01:23;;;;;;;5.03;1.75;;;;;;;;;;6424573;22;20041;-84
2023/12/04 09:03:49;;;;;;;6.32;2.80;;;;;;;;;;6396297;22;20468;-84
2023/12/04 09:06:15;;;;;;;4.28;2.28;;;;;;;;;;6425335;22;20005;-86
2023/12/04 09:08:41;;;;;;;7.15;3.13;;;;;;;;;;6424357;22;20609;-81
2023/12/04 09:11:07;;;;;;;3.58;2.17;;;;;;;;;;6394563;22;20029;-85
2023/12/04 09:13:33;;;;;;;10.38;2.70;;;;;;;;;;6394327;22;20902;-84
2023/12/04 09:15:59;;;;;;;5.15;2.90;;;;;;;;;;6395734;22;20113;-83
2023/12/04 09:18:25;;;;;;;7.18;3.08;;;;;;;;;;6396970;22;20448;-80
2023/12/04 09:20:50;;;;;;;5.20;2.88;;;;;;;;;;6424285;22;20349;-87
2023/12/04 09:23:16;;;;;;;5.63;2.72;;;;;;;;;;6393250;22;20005;-78
2023/12/04 09:25:41;;;;;;;6.65;2.65;;;;;;;;;;6420955;22;20013;-77
2023/12/04 09:28:07;;;;;;;2.10;1.30;;;;;;;;;;6417218;22;20120;-77
2023/12/04 09:30:36;;;;;;;3.90;2.35;;;;;;;;;;6420948;22;20021;-77
2023/12/04 09:33:02;;;;;;;4.30;1.98;;;;;;;;;;6393425;22;20068;-77
2023/12/04 09:35:27;;;;;;;7.55;3.17;;;;;;;;;;6422879;22;20537;-77
2023/12/04 09:37:54;;;;;;;4.47;2.80;;;;;;;;;;6393604;22;20330;-77
2023/12/04 09:40:19;;;;;;;3.67;1.80;;;;;;;;;;6422946;22;20001;-77
2023/12/04 09:42:45;;;;;;;5.95;2.67;;;;;;;;;;6424526;22;20041;-77
2023/12/04 09:45:12;;;;;;;6.95;3.47;;;;;;;;;;6428661;22;20011;-77
2023/12/04 09:47:37;;;;;;;5.55;2.78;;;;;;;;;;6409103;22;20009;-77
2023/12/04 09:50:04;;;;;;;1.52;1.38;;;;;;;;;;6433417;22;20505;-77
2023/12/04 09:52:30;;;;;;;10.55;3.15;;;;;;;;;;6423740;22;20074;-77
2023/12/04 09:54:56;;;;;;;7.45;3.38;;;;;;;;;;6422834;22;20017;-77
2023/12/04 09:57:24;;;;;;;3.55;1.88;;;;;;;;;;6423000;22;20001;-77
2023/12/04 09:59:51;;;;;;;6.25;3.05;;;;;;;;;;6394418;22;20445;-77
2023/12/04 10:02:17;;;;;;;7.05;3.20;;;;;;;;;;6394038;22;20013;-77
2023/12/04 10:04:42;;;;;;;3.78;2.53;;;;;;;;;;6393550;22;20032;-77
2023/12/04 10:07:08;;;;;;;4.03;1.73;;;;;;;;;;6419495;22;20028;-77
2023/12/04 10:09:34;;;;;;;6.70;2.63;;;;;;;;;;6422439;22;20711;-77
2023/12/04 10:11:59;;;;;;;3.53;1.85;;;;;;;;;;6395252;22;20451;-77
2023/12/04 10:14:25;;;;;;;3.22;1.65;;;;;;;;;;6422216;22;20408;-76
2023/12/04 10:16:52;;;;;;;6.28;2.85;;;;;;;;;;6394868;22;20070;-77
2023/12/04 10:19:23;;;;;;;4.18;2.42;;;;;;;;;;6422935;22;20005;-79
2023/12/04 10:21:50;;;;;;;5.70;2.83;;;;;;;;;;6393011;22;20462;-77
2023/12/04 10:24:33;;;;;;;5.25;2.13;;;;;;;;;;6393960;22;19997;-77
2023/12/04 10:26:59;;;;;;;5.87;2.63;;;;;;;;;;6394413;22;20409;-77
2023/12/04 10:29:27;;;;;;;14.55;5.97;;;;;;;;;;6393941;22;20766;-77
2023/12/04 10:31:54;;;;;;;9.93;3.55;;;;;;;;;;6393776;22;20009;-77
2023/12/04 10:34:21;;;;;;;8.18;3.33;;;;;;;;;;6422373;22;20088;-77
2023/12/04 10:36:46;;;;;;;5.05;2.90;;;;;;;;;;6393026;22;20005;-77
2023/12/04 10:39:14;;;;;;;5.32;3.10;;;;;;;;;;6423673;22;20008;-77
2023/12/04 10:41:40;;;;;;;3.75;2.15;;;;;;;;;;6393781;22;20527;-78
2023/12/04 10:44:06;;;;;;;8.20;4.40;;;;;;;;;;6394537;22;20033;-77
2023/12/04 10:46:33;;;;;;;4.88;2.58;;;;;;;;;;6393438;22;20061;-76
2023/12/04 10:48:59;;;;;;;7.93;3.50;;;;;;;;;;6422625;22;20089;-77
2023/12/04 10:51:25;;;;;;;8.73;3.85;;;;;;;;;;6394550;22;20001;-77
2023/12/04 10:53:51;;;;;;;4.03;2.30;;;;;;;;;;6424187;22;20325;-77
2023/12/04 10:56:27;;;;;;;3.13;1.90;;;;;;;;;;6393881;22;20032;-77
2023/12/04 10:58:54;;;;;;;4.07;1.88;;;;;;;;;;6395040;22;20576;-77
2023/12/04 11:01:23;;;;;;;3.05;1.65;;;;;;;;;;6394734;22;20521;-77
2023/12/04 11:03:52;;;;;;;2.47;1.50;;;;;;;;;;6395525;22;20022;-77
2023/12/04 11:06:21;;;;;;;2.10;1.67;;;;;;;;;;6431260;22;20001;-76
2023/12/04 11:08:52;;;;;;;3.45;1.65;;;;;;;;;;6440463;22;20023;-76
2023/12/04 11:11:25;;;;;;;1.98;1.40;;;;;;;;;;6438494;22;20061;-77
2023/12/04 11:13:55;;;;;;;4.22;1.65;;;;;;;;;;6425279;22;20017;-77
2023/12/04 11:16:29;;;;;;;2.67;1.60;;;;;;;;;;6395084;22;20088;-77
2023/12/04 11:19:29;;;;;;;1.05;0.95;;;;;;;;;;6422325;22;20535;-77
2023/12/04 11:21:58;;;;;;;4.20;2.47;;;;;;;;;;6394013;22;20021;-77
2023/12/04 11:24:24;;;;;;;2.53;1.63;;;;;;;;;;6430211;22;20429;-77
2023/12/04 11:26:50;;;;;;;4.22;2.03;;;;;;;;;;6418835;22;20012;-77
2023/12/04 11:29:15;;;;;;;2.90;1.50;;;;;;;;;;6407946;22;20005;-77
2023/12/04 11:31:41;;;;;;;2.75;1.73;;;;;;;;;;6394714;22;20005;-77
2023/12/04 11:34:09;;;;;;;2.60;1.88;;;;;;;;;;6423086;22;20001;-77
2023/12/04 11:36:36;;;;;;;2.08;1.30;;;;;;;;;;6423181;22;20083;-77
2023/12/04 11:39:02;;;;;;;2.45;1.52;;;;;;;;;;6423735;22;20394;-77
2023/12/04 11:41:29;;;;;;;1.90;1.08;;;;;;;;;;6421369;22;20418;-77
2023/12/04 11:43:56;;;;;;;1.92;1.30;;;;;;;;;;6393129;22;20412;-77
2023/12/04 11:46:26;;;;;;;5.22;2.35;;;;;;;;;;6392797;22;20069;-77
2023/12/04 11:48:56;;;;;;;1.83;1.42;;;;;;;;;;6394083;22;20009;-78
2023/12/04 11:51:46;;;;;;;1.25;1.02;;;;;;;;;;6421231;22;19997;-77
2023/12/04 11:54:15;;;;;;;4.00;2.17;;;;;;;;;;6422933;22;20013;-77
2023/12/04 11:56:40;;;;;;;2.38;1.55;;;;;;;;;;6392657;22;20014;-77
2023/12/04 11:59:07;;;;;;;3.35;1.52;;;;;;;;;;6393388;22;20020;-77
2023/12/04 12:01:39;;;;;;;3.45;1.80;;;;;;;;;;6421100;22;20017;-78
2023/12/04 12:04:05;;;;;;;1.63;0.97;;;;;;;;;;6391854;22;20041;-77
2023/12/04 12:06:31;;;;;;;3.00;1.08;;;;;;;;;;6393632;22;20002;-77
2023/12/04 12:08:57;;;;;;;3.65;1.58;;;;;;;;;;6393667;22;20085;-76
2023/12/04 12:11:28;;;;;;;4.72;1.58;;;;;;;;;;6394628;22;20400;-76
2023/12/04 12:13:54;;;;;;;4.97;1.95;;;;;;;;;;6391398;22;20010;-77
2023/12/04 12:16:19;;;;;;;2.92;1.73;;;;;;;;;;6421962;22;20055;-78
2023/12/04 12:18:45;;;;;;;2.10;1.83;;;;;;;;;;6393590;22;20065;-77
2023/12/04 12:21:11;;;;;;;2.60;1.42;;;;;;;;;;6423236;22;20001;-77
2023/12/04 12:23:36;;;;;;;2.00;1.27;;;;;;;;;;6422200;22;20006;-76
2023/12/04 12:26:02;;;;;;;3.08;1.77;;;;;;;;;;6397272;22;20014;-77
2023/12/04 12:28:28;;;;;;;2.20;1.80;;;;;;;;;;6407250;22;20019;-77
2023/12/04 12:30:54;;;;;;;1.95;1.40;;;;;;;;;;6435544;22;20005;-77
2023/12/04 12:33:20;;;;;;;3.80;2.08;;;;;;;;;;6422610;22;20034;-77
2023/12/04 12:35:47;;;;;;;3.65;1.77;;;;;;;;;;6392435;22;20731;-77
2023/12/04 12:38:12;;;;;;;3.53;2.03;;;;;;;;;;6392876;22;20017;-77
2023/12/04 12:40:38;;;;;;;3.15;1.83;;;;;;;;;;6392435;22;20021;-77
2023/12/04 12:43:05;;;;;;;3.08;1.85;;;;;;;;;;6421513;22;20013;-77
2023/12/04 12:45:47;;;;;;;2.95;1.88;;;;;;;;;;6421017;22;19993;-77
2023/12/04 12:48:17;;;;;;;5.93;2.50;;;;;;;;;;6393632;22;20039;-78
2023/12/04 12:50:43;;;;;;;5.65;2.75;;;;;;;;;;6421609;22;20364;-77
2023/12/04 12:53:11;;;;;;;6.97;3.17;;;;;;;;;;6392448;22;20066;-77
2023/12/04 12:55:43;;;;;;;3.00;1.83;;;;;;;;;;6421874;22;20014;-77
2023/12/04 12:58:13;;;;;;;2.53;1.23;;;;;;;;;;6391888;22;20002;-77
2023/12/04 13:00:40;;;;;;;4.45;2.30;;;;;;;;;;6423713;22;20375;-77
2023/12/04 13:03:14;;;;;;;3.20;1.30;;;;;;;;;;6394950;22;20005;-77
2023/12/04 13:05:39;;;;;;;3.42;2.10;;;;;;;;;;6394354;22;20017;-77
2023/12/04 13:08:04;;;;;;;2.08;1.60;;;;;;;;;;6423500;22;20092;-77
2023/12/04 13:10:30;;;;;;;1.48;1.30;;;;;;;;;;6394019;22;20358;-77
2023/12/04 13:12:56;;;;;;;4.88;1.85;;;;;;;;;;6395392;22;20009;-77
2023/12/04 13:15:22;;;;;;;1.67;1.27;;;;;;;;;;6394259;22;20001;-77
2023/12/04 13:17:47;;;;;;;2.03;1.02;;;;;;;;;;6423573;22;20020;-76
2023/12/04 13:20:13;;;;;;;3.33;1.55;;;;;;;;;;6391956;22;20762;-77
2023/12/04 13:22:39;;;;;;;2.25;1.73;;;;;;;;;;6422137;22;20515;-77
2023/12/04 13:25:07;;;;;;;3.28;1.83;;;;;;;;;;6395212;22;20005;-77
2023/12/04 13:27:33;;;;;;;2.85;2.08;;;;;;;;;;6394526;22;20002;-76
2023/12/04 13:29:58;;;;;;;3.03;2.05;;;;;;;;;;6423478;22;20057;-77
2023/12/04 13:32:24;;;;;;;3.85;2.38;;;;;;;;;;6394491;22;20009;-77
2023/12/04 13:34:49;;;;;;;4.65;2.40;;;;;;;;;;6423766;22;20093;-77
2023/12/04 13:37:15;;;;;;;3.33;1.92;;;;;;;;;;6395160;22;20013;-78
2023/12/04 13:39:57;;;;;;;2.67;1.90;;;;;;;;;;6423898;22;20000;-78
2023/12/04 13:45:09;;;;;;;4.93;2.45;;;;;;;;;;6424566;22;20016;-77
2023/12/04 13:47:35;;;;;;;4.65;2.55;;;;;;;;;;6402436;22;20338;-77
2023/12/04 13:50:01;;;;;;;5.60;2.28;;;;;;;;;;6412711;22;20041;-77
2023/12/04 13:52:29;;;;;;;4.10;2.22;;;;;;;;;;6439356;22;20009;-77
2023/12/04 13:54:56;;;;;;;3.50;2.47;;;;;;;;;;6397002;22;20519;-77
2023/12/04 13:57:27;;;;;;;5.70;2.90;;;;;;;;;;6424532;22;19997;-77
2023/12/04 13:59:55;;;;;;;6.60;2.72;;;;;;;;;;6393989;22;20516;-77
2023/12/04 14:02:21;;;;;;;5.20;2.30;;;;;;;;;;6422603;22;20020;-78
2023/12/04 14:04:48;;;;;;;6.63;2.78;;;;;;;;;;6392061;22;20022;-77
2023/12/04 14:07:14;;;;;;;4.80;2.75;;;;;;;;;;6391848;22;20009;-77
2023/12/04 14:09:39;;;;;;;4.10;2.35;;;;;;;;;;6394146;22;20012;-78
2023/12/04 14:12:06;;;;;;;9.13;2.97;;;;;;;;;;6393999;22;20077;-77
2023/12/04 14:14:33;;;;;;;2.88;1.92;;;;;;;;;;6421685;22;20160;-77
2023/12/04 14:16:58;;;;;;;5.25;2.70;;;;;;;;;;6392711;22;20010;-76
2023/12/04 14:19:24;;;;;;;5.43;2.97;;;;;;;;;;6391801;22;20057;-76
2023/12/04 14:21:49;;;;;;;4.75;3.22;;;;;;;;;;6421682;22;20013;-75
2023/12/04 14:24:14;;;;;;;5.00;2.33;;;;;;;;;;6422044;22;20008;-76
2023/12/04 14:26:40;;;;;;;6.65;3.67;;;;;;;;;;6391792;22;20016;-78
2023/12/04 14:29:07;;;;;;;9.13;4.68;;;;;;;;;;6419002;22;20031;-77
2023/12/04 14:31:34;;;;;;;5.97;3.28;;;;;;;;;;6420951;22;20005;-77
2023/12/04 14:33:59;;;;;;;9.57;4.10;;;;;;;;;;6392139;22;20422;-77
2023/12/04 14:36:26;;;;;;;9.45;4.53;;;;;;;;;;6420068;22;20005;-77
2023/12/04 14:38:52;;;;;;;13.05;5.45;;;;;;;;;;6421825;22;19994;-76
2023/12/04 14:41:17;;;;;;;5.43;3.10;;;;;;;;;;6393180;22;20014;-76